Aviation Digital Data Service (ADDS)

Output produced by METARs form (0218 UTC 29 May 2022)
found at http://www.aviationweather.gov/metar/data/
 
METAR text: EDDM 290150Z AUTO 33002KT CAVOK 03/02 Q1013 NOSIG
Conditions at: EDDM (MUNICH-FLUGHAFEN, DE) observed 0150 UTC 29 May 2022
Temperature: 3.0°C (37°F)
Dewpoint: 2.0°C (36°F) [RH = 93%]
Pressure (altimeter): 29.91 inches Hg (1013.0 mb)
Winds: from the NNW (330 degrees) at 2 MPH (2 knots; 1.0 m/s)
Visibility: 6 or more miles (10+ km)
Ceiling: ceiling and visibility are OK
Clouds: unknown
Weather: no significant weather observed at this time

METAR text: EDDM 290120Z AUTO VRB01KT CAVOK 03/02 Q1013 NOSIG
Conditions at: EDDM (MUNICH-FLUGHAFEN, DE) observed 0120 UTC 29 May 2022
Temperature: 3.0°C (37°F)
Dewpoint: 2.0°C (36°F) [RH = 93%]
Pressure (altimeter): 29.91 inches Hg (1013.0 mb)
Winds: variable direction winds at 1 MPH (1 knots; 0.5 m/s)
Visibility: 6 or more miles (10+ km)
Ceiling: ceiling and visibility are OK
Clouds: unknown
Weather: no significant weather observed at this time

METAR text: EDDM 290050Z AUTO 16002KT CAVOK 03/03 Q1014 NOSIG
Conditions at: EDDM (MUNICH-FLUGHAFEN, DE) observed 0050 UTC 29 May 2022
Temperature: 3.0°C (37°F)
Dewpoint: 3.0°C (37°F) [RH = 100%]
Pressure (altimeter): 29.94 inches Hg (1014.0 mb)
Winds: from the SSE (160 degrees) at 2 MPH (2 knots; 1.0 m/s)
Visibility: 6 or more miles (10+ km)
Ceiling: ceiling and visibility are OK
Clouds: unknown
Weather: no significant weather observed at this time

METAR text: EDDM 290020Z AUTO VRB02KT CAVOK 03/03 Q1014 NOSIG
Conditions at: EDDM (MUNICH-FLUGHAFEN, DE) observed 0020 UTC 29 May 2022
Temperature: 3.0°C (37°F)
Dewpoint: 3.0°C (37°F) [RH = 100%]
Pressure (altimeter): 29.94 inches Hg (1014.0 mb)
Winds: variable direction winds at 2 MPH (2 knots; 1.0 m/s)
Visibility: 6 or more miles (10+ km)
Ceiling: ceiling and visibility are OK
Clouds: unknown
Weather: no significant weather observed at this time

METAR text: EDDM 282350Z AUTO 12001KT CAVOK 04/03 Q1014 NOSIG
Conditions at: EDDM (MUNICH-FLUGHAFEN, DE) observed 2350 UTC 28 May 2022
Temperature: 4.0°C (39°F)
Dewpoint: 3.0°C (37°F) [RH = 93%]
Pressure (altimeter): 29.94 inches Hg (1014.0 mb)
Winds: from the ESE (120 degrees) at 1 MPH (1 knots; 0.5 m/s)
Visibility: 6 or more miles (10+ km)
Ceiling: ceiling and visibility are OK
Clouds: unknown
Weather: no significant weather observed at this time

METAR text: EDDM 282320Z AUTO VRB01KT CAVOK 05/04 Q1015 NOSIG
Conditions at: EDDM (MUNICH-FLUGHAFEN, DE) observed 2320 UTC 28 May 2022
Temperature: 5.0°C (41°F)
Dewpoint: 4.0°C (39°F) [RH = 93%]
Pressure (altimeter): 29.97 inches Hg (1015.0 mb)
Winds: variable direction winds at 1 MPH (1 knots; 0.5 m/s)
Visibility: 6 or more miles (10+ km)
Ceiling: ceiling and visibility are OK
Clouds: unknown
Weather: no significant weather observed at this time

METAR text: EDDM 282250Z AUTO VRB01KT CAVOK 05/03 Q1015 NOSIG
Conditions at: EDDM (MUNICH-FLUGHAFEN, DE) observed 2250 UTC 28 May 2022
Temperature: 5.0°C (41°F)
Dewpoint: 3.0°C (37°F) [RH = 87%]
Pressure (altimeter): 29.97 inches Hg (1015.0 mb)
Winds: variable direction winds at 1 MPH (1 knots; 0.5 m/s)
Visibility: 6 or more miles (10+ km)
Ceiling: ceiling and visibility are OK
Clouds: unknown
Weather: no significant weather observed at this time

METAR text: EDDM 282220Z AUTO VRB01KT CAVOK 05/03 Q1015 NOSIG
Conditions at: EDDM (MUNICH-FLUGHAFEN, DE) observed 2220 UTC 28 May 2022
Temperature: 5.0°C (41°F)
Dewpoint: 3.0°C (37°F) [RH = 87%]
Pressure (altimeter): 29.97 inches Hg (1015.0 mb)
Winds: variable direction winds at 1 MPH (1 knots; 0.5 m/s)
Visibility: 6 or more miles (10+ km)
Ceiling: ceiling and visibility are OK
Clouds: unknown
Weather: no significant weather observed at this time

METAR text: EDDM 282150Z AUTO VRB01KT CAVOK 05/04 Q1016 NOSIG
Conditions at: EDDM (MUNICH-FLUGHAFEN, DE) observed 2150 UTC 28 May 2022
Temperature: 5.0°C (41°F)
Dewpoint: 4.0°C (39°F) [RH = 93%]
Pressure (altimeter): 30.00 inches Hg (1016.0 mb)
Winds: variable direction winds at 1 MPH (1 knots; 0.5 m/s)
Visibility: 6 or more miles (10+ km)
Ceiling: ceiling and visibility are OK
Clouds: unknown
Weather: no significant weather observed at this time

METAR text: EDDM 282120Z AUTO VRB02KT CAVOK 06/04 Q1016 NOSIG
Conditions at: EDDM (MUNICH-FLUGHAFEN, DE) observed 2120 UTC 28 May 2022
Temperature: 6.0°C (43°F)
Dewpoint: 4.0°C (39°F) [RH = 87%]
Pressure (altimeter): 30.00 inches Hg (1016.0 mb)
Winds: variable direction winds at 2 MPH (2 knots; 1.0 m/s)
Visibility: 6 or more miles (10+ km)
Ceiling: ceiling and visibility are OK
Clouds: unknown
Weather: no significant weather observed at this time

METAR text: EDDM 282050Z AUTO 31002KT CAVOK 06/04 Q1016 NOSIG
Conditions at: EDDM (MUNICH-FLUGHAFEN, DE) observed 2050 UTC 28 May 2022
Temperature: 6.0°C (43°F)
Dewpoint: 4.0°C (39°F) [RH = 87%]
Pressure (altimeter): 30.00 inches Hg (1016.0 mb)
Winds: from the NW (310 degrees) at 2 MPH (2 knots; 1.0 m/s)
Visibility: 6 or more miles (10+ km)
Ceiling: ceiling and visibility are OK
Clouds: unknown
Weather: no significant weather observed at this time

METAR text: EDDM 282020Z AUTO 29003KT CAVOK 08/04 Q1016 NOSIG
Conditions at: EDDM (MUNICH-FLUGHAFEN, DE) observed 2020 UTC 28 May 2022
Temperature: 8.0°C (46°F)
Dewpoint: 4.0°C (39°F) [RH = 76%]
Pressure (altimeter): 30.00 inches Hg (1016.0 mb)
Winds: from the WNW (290 degrees) at 3 MPH (3 knots; 1.5 m/s)
Visibility: 6 or more miles (10+ km)
Ceiling: ceiling and visibility are OK
Clouds: unknown
Weather: no significant weather observed at this time

METAR text: EDDM 281950Z AUTO 26004KT CAVOK 08/04 Q1016 NOSIG
Conditions at: EDDM (MUNICH-FLUGHAFEN, DE) observed 1950 UTC 28 May 2022
Temperature: 8.0°C (46°F)
Dewpoint: 4.0°C (39°F) [RH = 76%]
Pressure (altimeter): 30.00 inches Hg (1016.0 mb)
Winds: from the W (260 degrees) at 5 MPH (4 knots; 2.1 m/s)
Visibility: 6 or more miles (10+ km)
Ceiling: ceiling and visibility are OK
Clouds: unknown
Weather: no significant weather observed at this time

METAR text: EDDM 281920Z AUTO 25004KT CAVOK 12/03 Q1016 NOSIG
Conditions at: EDDM (MUNICH-FLUGHAFEN, DE) observed 1920 UTC 28 May 2022
Temperature: 12.0°C (54°F)
Dewpoint: 3.0°C (37°F) [RH = 54%]
Pressure (altimeter): 30.00 inches Hg (1016.0 mb)
Winds: from the WSW (250 degrees) at 5 MPH (4 knots; 2.1 m/s)
Visibility: 6 or more miles (10+ km)
Ceiling: ceiling and visibility are OK
Clouds: unknown
Weather: no significant weather observed at this time

METAR text: EDDM 281850Z AUTO VRB02KT CAVOK 13/02 Q1016 NOSIG
Conditions at: EDDM (MUNICH-FLUGHAFEN, DE) observed 1850 UTC 28 May 2022
Temperature: 13.0°C (55°F)
Dewpoint: 2.0°C (36°F) [RH = 47%]
Pressure (altimeter): 30.00 inches Hg (1016.0 mb)
Winds: variable direction winds at 2 MPH (2 knots; 1.0 m/s)
Visibility: 6 or more miles (10+ km)
Ceiling: ceiling and visibility are OK
Clouds: unknown
Weather: no significant weather observed at this time

METAR text: EDDM 281820Z AUTO 32005KT CAVOK 14/02 Q1016 NOSIG
Conditions at: EDDM (MUNICH-FLUGHAFEN, DE) observed 1820 UTC 28 May 2022
Temperature: 14.0°C (57°F)
Dewpoint: 2.0°C (36°F) [RH = 44%]
Pressure (altimeter): 30.00 inches Hg (1016.0 mb)
Winds: from the NW (320 degrees) at 6 MPH (5 knots; 2.6 m/s)
Visibility: 6 or more miles (10+ km)
Ceiling: ceiling and visibility are OK
Clouds: unknown
Weather: no significant weather observed at this time

METAR text: EDDM 281750Z AUTO 31006KT CAVOK 15/01 Q1016 NOSIG
Conditions at: EDDM (MUNICH-FLUGHAFEN, DE) observed 1750 UTC 28 May 2022
Temperature: 15.0°C (59°F)
Dewpoint: 1.0°C (34°F) [RH = 39%]
Pressure (altimeter): 30.00 inches Hg (1016.0 mb)
Winds: from the NW (310 degrees) at 7 MPH (6 knots; 3.1 m/s)
Visibility: 6 or more miles (10+ km)
Ceiling: ceiling and visibility are OK
Clouds: unknown
Weather: no significant weather observed at this time

METAR text: EDDM 281720Z AUTO 31008KT CAVOK 15/02 Q1016 NOSIG
Conditions at: EDDM (MUNICH-FLUGHAFEN, DE) observed 1720 UTC 28 May 2022
Temperature: 15.0°C (59°F)
Dewpoint: 2.0°C (36°F) [RH = 41%]
Pressure (altimeter): 30.00 inches Hg (1016.0 mb)
Winds: from the NW (310 degrees) at 9 MPH (8 knots; 4.1 m/s)
Visibility: 6 or more miles (10+ km)
Ceiling: ceiling and visibility are OK
Clouds: unknown
Weather: no significant weather observed at this time

METAR text: EDDM 281650Z AUTO 32006KT 290V360 CAVOK 15/03 Q1016 NOSIG
Conditions at: EDDM (MUNICH-FLUGHAFEN, DE) observed 1650 UTC 28 May 2022
Temperature: 15.0°C (59°F)
Dewpoint: 3.0°C (37°F) [RH = 44%]
Pressure (altimeter): 30.00 inches Hg (1016.0 mb)
Winds: from the NW (320 degrees) at 7 MPH (6 knots; 3.1 m/s)
Visibility: 6 or more miles (10+ km)
Ceiling: ceiling and visibility are OK
Clouds: unknown
Weather: no significant weather observed at this time

METAR text: EDDM 281620Z AUTO 34006KT 290V050 CAVOK 16/03 Q1017 NOSIG
Conditions at: EDDM (MUNICH-FLUGHAFEN, DE) observed 1620 UTC 28 May 2022
Temperature: 16.0°C (61°F)
Dewpoint: 3.0°C (37°F) [RH = 42%]
Pressure (altimeter): 30.03 inches Hg (1017.0 mb)
Winds: from the NNW (340 degrees) at 7 MPH (6 knots; 3.1 m/s)
Visibility: 6 or more miles (10+ km)
Ceiling: ceiling and visibility are OK
Clouds: unknown
Weather: no significant weather observed at this time

METAR text: EDDM 281550Z AUTO 31005KT 250V350 CAVOK 15/03 Q1017 NOSIG
Conditions at: EDDM (MUNICH-FLUGHAFEN, DE) observed 1550 UTC 28 May 2022
Temperature: 15.0°C (59°F)
Dewpoint: 3.0°C (37°F) [RH = 44%]
Pressure (altimeter): 30.03 inches Hg (1017.0 mb)
Winds: from the NW (310 degrees) at 6 MPH (5 knots; 2.6 m/s)
Visibility: 6 or more miles (10+ km)
Ceiling: ceiling and visibility are OK
Clouds: unknown
Weather: no significant weather observed at this time

METAR text: EDDM 281520Z AUTO 30007KT 260V360 CAVOK 16/03 Q1017 NOSIG
Conditions at: EDDM (MUNICH-FLUGHAFEN, DE) observed 1520 UTC 28 May 2022
Temperature: 16.0°C (61°F)
Dewpoint: 3.0°C (37°F) [RH = 42%]
Pressure (altimeter): 30.03 inches Hg (1017.0 mb)
Winds: from the WNW (300 degrees) at 8 MPH (7 knots; 3.6 m/s)
Visibility: 6 or more miles (10+ km)
Ceiling: ceiling and visibility are OK
Clouds: unknown
Weather: no significant weather observed at this time

METAR text: EDDM 281450Z AUTO 32006KT 290V360 CAVOK 15/02 Q1017 NOSIG
Conditions at: EDDM (MUNICH-FLUGHAFEN, DE) observed 1450 UTC 28 May 2022
Temperature: 15.0°C (59°F)
Dewpoint: 2.0°C (36°F) [RH = 41%]
Pressure (altimeter): 30.03 inches Hg (1017.0 mb)
Winds: from the NW (320 degrees) at 7 MPH (6 knots; 3.1 m/s)
Visibility: 6 or more miles (10+ km)
Ceiling: ceiling and visibility are OK
Clouds: unknown
Weather: no significant weather observed at this time

METAR text: EDDM 281420Z AUTO 28008KT 230V330 CAVOK 15/04 Q1018 NOSIG
Conditions at: EDDM (MUNICH-FLUGHAFEN, DE) observed 1420 UTC 28 May 2022
Temperature: 15.0°C (59°F)
Dewpoint: 4.0°C (39°F) [RH = 48%]
Pressure (altimeter): 30.06 inches Hg (1018.0 mb)
Winds: from the W (280 degrees) at 9 MPH (8 knots; 4.1 m/s)
Visibility: 6 or more miles (10+ km)
Ceiling: ceiling and visibility are OK
Clouds: unknown
Weather: no significant weather observed at this time

METAR text: EDDM 281350Z AUTO 29010KT 250V320 CAVOK 15/03 Q1018 NOSIG
Conditions at: EDDM (MUNICH-FLUGHAFEN, DE) observed 1350 UTC 28 May 2022
Temperature: 15.0°C (59°F)
Dewpoint: 3.0°C (37°F) [RH = 44%]
Pressure (altimeter): 30.06 inches Hg (1018.0 mb)
Winds: from the WNW (290 degrees) at 12 MPH (10 knots; 5.1 m/s)
Visibility: 6 or more miles (10+ km)
Ceiling: ceiling and visibility are OK
Clouds: unknown
Weather: no significant weather observed at this time

METAR text: EDDM 281320Z AUTO 27011KT 240V310 CAVOK 15/03 Q1018 NOSIG
Conditions at: EDDM (MUNICH-FLUGHAFEN, DE) observed 1320 UTC 28 May 2022
Temperature: 15.0°C (59°F)
Dewpoint: 3.0°C (37°F) [RH = 44%]
Pressure (altimeter): 30.06 inches Hg (1018.0 mb)
Winds: from the W (270 degrees) at 13 MPH (11 knots; 5.7 m/s)
Visibility: 6 or more miles (10+ km)
Ceiling: ceiling and visibility are OK
Clouds: unknown
Weather: no significant weather observed at this time

METAR text: EDDM 281250Z AUTO 32010KT 290V010 CAVOK 16/04 Q1018 NOSIG
Conditions at: EDDM (MUNICH-FLUGHAFEN, DE) observed 1250 UTC 28 May 2022
Temperature: 16.0°C (61°F)
Dewpoint: 4.0°C (39°F) [RH = 45%]
Pressure (altimeter): 30.06 inches Hg (1018.0 mb)
Winds: from the NW (320 degrees) at 12 MPH (10 knots; 5.1 m/s)
Visibility: 6 or more miles (10+ km)
Ceiling: ceiling and visibility are OK
Clouds: unknown
Weather: no significant weather observed at this time

METAR text: EDDM 281220Z AUTO 29009KT 250V320 CAVOK 15/03 Q1019 NOSIG
Conditions at: EDDM (MUNICH-FLUGHAFEN, DE) observed 1220 UTC 28 May 2022
Temperature: 15.0°C (59°F)
Dewpoint: 3.0°C (37°F) [RH = 44%]
Pressure (altimeter): 30.09 inches Hg (1019.0 mb)
Winds: from the WNW (290 degrees) at 10 MPH (9 knots; 4.6 m/s)
Visibility: 6 or more miles (10+ km)
Ceiling: ceiling and visibility are OK
Clouds: unknown
Weather: no significant weather observed at this time

METAR text: EDDM 281150Z AUTO 29009KT 260V010 CAVOK 15/04 Q1019 NOSIG
Conditions at: EDDM (MUNICH-FLUGHAFEN, DE) observed 1150 UTC 28 May 2022
Temperature: 15.0°C (59°F)
Dewpoint: 4.0°C (39°F) [RH = 48%]
Pressure (altimeter): 30.09 inches Hg (1019.0 mb)
Winds: from the WNW (290 degrees) at 10 MPH (9 knots; 4.6 m/s)
Visibility: 6 or more miles (10+ km)
Ceiling: ceiling and visibility are OK
Clouds: unknown
Weather: no significant weather observed at this time

METAR text: EDDM 281120Z AUTO 32009KT 280V030 CAVOK 15/03 Q1019 NOSIG
Conditions at: EDDM (MUNICH-FLUGHAFEN, DE) observed 1120 UTC 28 May 2022
Temperature: 15.0°C (59°F)
Dewpoint: 3.0°C (37°F) [RH = 44%]
Pressure (altimeter): 30.09 inches Hg (1019.0 mb)
Winds: from the NW (320 degrees) at 10 MPH (9 knots; 4.6 m/s)
Visibility: 6 or more miles (10+ km)
Ceiling: ceiling and visibility are OK
Clouds: unknown
Weather: no significant weather observed at this time

METAR text: EDDM 281050Z AUTO 29009KT 250V340 9999 SCT049 15/04 Q1019 NOSIG
Conditions at: EDDM (MUNICH-FLUGHAFEN, DE) observed 1050 UTC 28 May 2022
Temperature: 15.0°C (59°F)
Dewpoint: 4.0°C (39°F) [RH = 48%]
Pressure (altimeter): 30.09 inches Hg (1019.0 mb)
Winds: from the WNW (290 degrees) at 10 MPH (9 knots; 4.6 m/s)
Visibility: 6 or more miles (10+ km)
Ceiling: at least 12,000 feet AGL
Clouds: scattered clouds at 4900 feet AGL
Weather: no significant weather observed at this time

METAR text: EDDM 281020Z AUTO 30008KT 250V020 9999 SCT047 15/05 Q1020 NOSIG
Conditions at: EDDM (MUNICH-FLUGHAFEN, DE) observed 1020 UTC 28 May 2022
Temperature: 15.0°C (59°F)
Dewpoint: 5.0°C (41°F) [RH = 51%]
Pressure (altimeter): 30.12 inches Hg (1020.0 mb)
Winds: from the WNW (300 degrees) at 9 MPH (8 knots; 4.1 m/s)
Visibility: 6 or more miles (10+ km)
Ceiling: at least 12,000 feet AGL
Clouds: scattered clouds at 4700 feet AGL
Weather: no significant weather observed at this time

METAR text: EDDM 280950Z AUTO 32010KT 260V360 9999 SCT044 14/05 Q1020 NOSIG
Conditions at: EDDM (MUNICH-FLUGHAFEN, DE) observed 0950 UTC 28 May 2022
Temperature: 14.0°C (57°F)
Dewpoint: 5.0°C (41°F) [RH = 55%]
Pressure (altimeter): 30.12 inches Hg (1020.0 mb)
Winds: from the NW (320 degrees) at 12 MPH (10 knots; 5.1 m/s)
Visibility: 6 or more miles (10+ km)
Ceiling: at least 12,000 feet AGL
Clouds: scattered clouds at 4400 feet AGL
Weather: no significant weather observed at this time

METAR text: EDDM 280920Z AUTO 31011KT 9999 FEW043 13/03 Q1020 NOSIG
Conditions at: EDDM (MUNICH-FLUGHAFEN, DE) observed 0920 UTC 28 May 2022
Temperature: 13.0°C (55°F)
Dewpoint: 3.0°C (37°F) [RH = 51%]
Pressure (altimeter): 30.12 inches Hg (1020.0 mb)
Winds: from the NW (310 degrees) at 13 MPH (11 knots; 5.7 m/s)
Visibility: 6 or more miles (10+ km)
Ceiling: at least 12,000 feet AGL
Clouds: few clouds at 4300 feet AGL
Weather: no significant weather observed at this time

METAR text: EDDM 280850Z AUTO 31010KT 250V020 9999 FEW040 13/04 Q1020 NOSIG
Conditions at: EDDM (MUNICH-FLUGHAFEN, DE) observed 0850 UTC 28 May 2022
Temperature: 13.0°C (55°F)
Dewpoint: 4.0°C (39°F) [RH = 54%]
Pressure (altimeter): 30.12 inches Hg (1020.0 mb)
Winds: from the NW (310 degrees) at 12 MPH (10 knots; 5.1 m/s)
Visibility: 6 or more miles (10+ km)
Ceiling: at least 12,000 feet AGL
Clouds: few clouds at 4000 feet AGL
Weather: no significant weather observed at this time

METAR text: EDDM 280820Z AUTO 32011KT 280V340 9999 FEW038 13/04 Q1020 NOSIG
Conditions at: EDDM (MUNICH-FLUGHAFEN, DE) observed 0820 UTC 28 May 2022
Temperature: 13.0°C (55°F)
Dewpoint: 4.0°C (39°F) [RH = 54%]
Pressure (altimeter): 30.12 inches Hg (1020.0 mb)
Winds: from the NW (320 degrees) at 13 MPH (11 knots; 5.7 m/s)
Visibility: 6 or more miles (10+ km)
Ceiling: at least 12,000 feet AGL
Clouds: few clouds at 3800 feet AGL
Weather: no significant weather observed at this time

METAR text: EDDM 280750Z AUTO 31011KT 270V340 9999 FEW033 13/05 Q1020 NOSIG
Conditions at: EDDM (MUNICH-FLUGHAFEN, DE) observed 0750 UTC 28 May 2022
Temperature: 13.0°C (55°F)
Dewpoint: 5.0°C (41°F) [RH = 58%]
Pressure (altimeter): 30.12 inches Hg (1020.0 mb)
Winds: from the NW (310 degrees) at 13 MPH (11 knots; 5.7 m/s)
Visibility: 6 or more miles (10+ km)
Ceiling: at least 12,000 feet AGL
Clouds: few clouds at 3300 feet AGL
Weather: no significant weather observed at this time

METAR text: EDDM 280720Z AUTO 32009KT 280V360 9999 FEW030 12/05 Q1020 NOSIG
Conditions at: EDDM (MUNICH-FLUGHAFEN, DE) observed 0720 UTC 28 May 2022
Temperature: 12.0°C (54°F)
Dewpoint: 5.0°C (41°F) [RH = 62%]
Pressure (altimeter): 30.12 inches Hg (1020.0 mb)
Winds: from the NW (320 degrees) at 10 MPH (9 knots; 4.6 m/s)
Visibility: 6 or more miles (10+ km)
Ceiling: at least 12,000 feet AGL
Clouds: few clouds at 3000 feet AGL
Weather: no significant weather observed at this time

METAR text: EDDM 280650Z AUTO 29011KT 260V320 CAVOK 11/05 Q1020 NOSIG
Conditions at: EDDM (MUNICH-FLUGHAFEN, DE) observed 0650 UTC 28 May 2022
Temperature: 11.0°C (52°F)
Dewpoint: 5.0°C (41°F) [RH = 66%]
Pressure (altimeter): 30.12 inches Hg (1020.0 mb)
Winds: from the WNW (290 degrees) at 13 MPH (11 knots; 5.7 m/s)
Visibility: 6 or more miles (10+ km)
Ceiling: ceiling and visibility are OK
Clouds: unknown
Weather: no significant weather observed at this time

METAR text: EDDM 280620Z AUTO 29007KT 260V320 9999 FEW018 11/07 Q1020 NOSIG
Conditions at: EDDM (MUNICH-FLUGHAFEN, DE) observed 0620 UTC 28 May 2022
Temperature: 11.0°C (52°F)
Dewpoint: 7.0°C (45°F) [RH = 76%]
Pressure (altimeter): 30.12 inches Hg (1020.0 mb)
Winds: from the WNW (290 degrees) at 8 MPH (7 knots; 3.6 m/s)
Visibility: 6 or more miles (10+ km)
Ceiling: at least 12,000 feet AGL
Clouds: few clouds at 1800 feet AGL
Weather: no significant weather observed at this time

METAR text: EDDM 280550Z AUTO 27005KT CAVOK 10/08 Q1020 RESHRA NOSIG
Conditions at: EDDM (MUNICH-FLUGHAFEN, DE) observed 0550 UTC 28 May 2022
Temperature: 10.0°C (50°F)
Dewpoint: 8.0°C (46°F) [RH = 87%]
Pressure (altimeter): 30.12 inches Hg (1020.0 mb)
Winds: from the W (270 degrees) at 6 MPH (5 knots; 2.6 m/s)
Visibility: 6 or more miles (10+ km)
Ceiling: ceiling and visibility are OK
Clouds: unknown
Weather: no significant weather observed at this time

METAR text: EDDM 280520Z AUTO 27004KT 9999 SHRA FEW034 FEW///CB 10/07 Q1020 NOSIG
Conditions at: EDDM (MUNICH-FLUGHAFEN, DE) observed 0520 UTC 28 May 2022
Temperature: 10.0°C (50°F)
Dewpoint: 7.0°C (45°F) [RH = 82%]
Pressure (altimeter): 30.12 inches Hg (1020.0 mb)
Winds: from the W (270 degrees) at 5 MPH (4 knots; 2.1 m/s)
Visibility: 6 or more miles (10+ km)
Ceiling: at least 12,000 feet AGL
Clouds: few clouds at 3400 feet AGL
Weather: SHRA  (rain showers)

METAR text: EDDM 280450Z AUTO 29006KT 9999 SHRA FEW038 FEW///CB 10/06 Q1020 BECMG NSW
Conditions at: EDDM (MUNICH-FLUGHAFEN, DE) observed 0450 UTC 28 May 2022
Temperature: 10.0°C (50°F)
Dewpoint: 6.0°C (43°F) [RH = 76%]
Pressure (altimeter): 30.12 inches Hg (1020.0 mb)
Winds: from the WNW (290 degrees) at 7 MPH (6 knots; 3.1 m/s)
Visibility: 6 or more miles (10+ km)
Ceiling: at least 12,000 feet AGL
Clouds: few clouds at 3800 feet AGL
Weather: SHRA  (rain showers)

METAR text: EDDM 280420Z AUTO 31010KT 9999 -RA BKN045 11/04 Q1020 NOSIG
Conditions at: EDDM (MUNICH-FLUGHAFEN, DE) observed 0420 UTC 28 May 2022
Temperature: 11.0°C (52°F)
Dewpoint: 4.0°C (39°F) [RH = 62%]
Pressure (altimeter): 30.12 inches Hg (1020.0 mb)
Winds: from the NW (310 degrees) at 12 MPH (10 knots; 5.1 m/s)
Visibility: 6 or more miles (10+ km)
Ceiling: 4500 feet AGL
Clouds: broken clouds at 4500 feet AGL
Weather: -RA  (light rain)

METAR text: EDDM 280350Z AUTO 29005KT 9999 FEW042 12/05 Q1019 NOSIG
Conditions at: EDDM (MUNICH-FLUGHAFEN, DE) observed 0350 UTC 28 May 2022
Temperature: 12.0°C (54°F)
Dewpoint: 5.0°C (41°F) [RH = 62%]
Pressure (altimeter): 30.09 inches Hg (1019.0 mb)
Winds: from the WNW (290 degrees) at 6 MPH (5 knots; 2.6 m/s)
Visibility: 6 or more miles (10+ km)
Ceiling: at least 12,000 feet AGL
Clouds: few clouds at 4200 feet AGL
Weather: no significant weather observed at this time

METAR text: EDDM 280320Z AUTO 28005KT 9999 -RA BKN034 12/06 Q1019 NOSIG
Conditions at: EDDM (MUNICH-FLUGHAFEN, DE) observed 0320 UTC 28 May 2022
Temperature: 12.0°C (54°F)
Dewpoint: 6.0°C (43°F) [RH = 67%]
Pressure (altimeter): 30.09 inches Hg (1019.0 mb)
Winds: from the W (280 degrees) at 6 MPH (5 knots; 2.6 m/s)
Visibility: 6 or more miles (10+ km)
Ceiling: 3400 feet AGL
Clouds: broken clouds at 3400 feet AGL
Weather: -RA  (light rain)

METAR text: EDDM 280250Z AUTO 30005KT 9999 SCT029 BKN038 12/07 Q1019 NOSIG
Conditions at: EDDM (MUNICH-FLUGHAFEN, DE) observed 0250 UTC 28 May 2022
Temperature: 12.0°C (54°F)
Dewpoint: 7.0°C (45°F) [RH = 71%]
Pressure (altimeter): 30.09 inches Hg (1019.0 mb)
Winds: from the WNW (300 degrees) at 6 MPH (5 knots; 2.6 m/s)
Visibility: 6 or more miles (10+ km)
Ceiling: 3800 feet AGL
Clouds: scattered clouds at 2900 feet AGL
broken clouds at 3800 feet AGL
Weather: no significant weather observed at this time

METAR text: EDDM 280220Z AUTO 31007KT 9999 SCT020 SCT048 12/09 Q1019 NOSIG
Conditions at: EDDM (MUNICH-FLUGHAFEN, DE) observed 0220 UTC 28 May 2022
Temperature: 12.0°C (54°F)
Dewpoint: 9.0°C (48°F) [RH = 82%]
Pressure (altimeter): 30.09 inches Hg (1019.0 mb)
Winds: from the NW (310 degrees) at 8 MPH (7 knots; 3.6 m/s)
Visibility: 6 or more miles (10+ km)
Ceiling: at least 12,000 feet AGL
Clouds: scattered clouds at 2000 feet AGL
scattered clouds at 4800 feet AGL
Weather: no significant weather observed at this time

METAR text: EDDM 280150Z AUTO 29005KT 9999 FEW030 13/10 Q1019 NOSIG
Conditions at: EDDM (MUNICH-FLUGHAFEN, DE) observed 0150 UTC 28 May 2022
Temperature: 13.0°C (55°F)
Dewpoint: 10.0°C (50°F) [RH = 82%]
Pressure (altimeter): 30.09 inches Hg (1019.0 mb)
Winds: from the WNW (290 degrees) at 6 MPH (5 knots; 2.6 m/s)
Visibility: 6 or more miles (10+ km)
Ceiling: at least 12,000 feet AGL
Clouds: few clouds at 3000 feet AGL
Weather: no significant weather observed at this time

METAR text: EDDM 280120Z AUTO 27007KT 9999 FEW024 BKN049 13/10 Q1019 NOSIG
Conditions at: EDDM (MUNICH-FLUGHAFEN, DE) observed 0120 UTC 28 May 2022
Temperature: 13.0°C (55°F)
Dewpoint: 10.0°C (50°F) [RH = 82%]
Pressure (altimeter): 30.09 inches Hg (1019.0 mb)
Winds: from the W (270 degrees) at 8 MPH (7 knots; 3.6 m/s)
Visibility: 6 or more miles (10+ km)
Ceiling: 4900 feet AGL
Clouds: few clouds at 2400 feet AGL
broken clouds at 4900 feet AGL
Weather: no significant weather observed at this time

METAR text: EDDM 280050Z AUTO 27007KT 9999 BKN024 13/10 Q1019 NOSIG
Conditions at: EDDM (MUNICH-FLUGHAFEN, DE) observed 0050 UTC 28 May 2022
Temperature: 13.0°C (55°F)
Dewpoint: 10.0°C (50°F) [RH = 82%]
Pressure (altimeter): 30.09 inches Hg (1019.0 mb)
Winds: from the W (270 degrees) at 8 MPH (7 knots; 3.6 m/s)
Visibility: 6 or more miles (10+ km)
Ceiling: 2400 feet AGL
Clouds: broken clouds at 2400 feet AGL
Weather: no significant weather observed at this time

METAR text: EDDM 280020Z AUTO 27007KT 9999 SCT025 BKN038 BKN044 13/11 Q1020 NOSIG
Conditions at: EDDM (MUNICH-FLUGHAFEN, DE) observed 0020 UTC 28 May 2022
Temperature: 13.0°C (55°F)
Dewpoint: 11.0°C (52°F) [RH = 88%]
Pressure (altimeter): 30.12 inches Hg (1020.0 mb)
Winds: from the W (270 degrees) at 8 MPH (7 knots; 3.6 m/s)
Visibility: 6 or more miles (10+ km)
Ceiling: 3800 feet AGL
Clouds: scattered clouds at 2500 feet AGL
broken clouds at 3800 feet AGL
broken clouds at 4400 feet AGL
Weather: no significant weather observed at this time

METAR text: EDDM 272350Z AUTO 24008KT 9999 FEW044 12/11 Q1020 NOSIG
Conditions at: EDDM (MUNICH-FLUGHAFEN, DE) observed 2350 UTC 27 May 2022
Temperature: 12.0°C (54°F)
Dewpoint: 11.0°C (52°F) [RH = 94%]
Pressure (altimeter): 30.12 inches Hg (1020.0 mb)
Winds: from the WSW (240 degrees) at 9 MPH (8 knots; 4.1 m/s)
Visibility: 6 or more miles (10+ km)
Ceiling: at least 12,000 feet AGL
Clouds: few clouds at 4400 feet AGL
Weather: no significant weather observed at this time

METAR text: EDDM 272320Z AUTO 25008KT CAVOK 12/11 Q1020 NOSIG
Conditions at: EDDM (MUNICH-FLUGHAFEN, DE) observed 2320 UTC 27 May 2022
Temperature: 12.0°C (54°F)
Dewpoint: 11.0°C (52°F) [RH = 94%]
Pressure (altimeter): 30.12 inches Hg (1020.0 mb)
Winds: from the WSW (250 degrees) at 9 MPH (8 knots; 4.1 m/s)
Visibility: 6 or more miles (10+ km)
Ceiling: ceiling and visibility are OK
Clouds: unknown
Weather: no significant weather observed at this time

METAR text: EDDM 272250Z AUTO 23008KT CAVOK 13/12 Q1020 NOSIG
Conditions at: EDDM (MUNICH-FLUGHAFEN, DE) observed 2250 UTC 27 May 2022
Temperature: 13.0°C (55°F)
Dewpoint: 12.0°C (54°F) [RH = 94%]
Pressure (altimeter): 30.12 inches Hg (1020.0 mb)
Winds: from the SW (230 degrees) at 9 MPH (8 knots; 4.1 m/s)
Visibility: 6 or more miles (10+ km)
Ceiling: ceiling and visibility are OK
Clouds: unknown
Weather: no significant weather observed at this time

METAR text: EDDM 272220Z AUTO 26006KT CAVOK 13/12 Q1021 NOSIG
Conditions at: EDDM (MUNICH-FLUGHAFEN, DE) observed 2220 UTC 27 May 2022
Temperature: 13.0°C (55°F)
Dewpoint: 12.0°C (54°F) [RH = 94%]
Pressure (altimeter): 30.15 inches Hg (1021.0 mb)
Winds: from the W (260 degrees) at 7 MPH (6 knots; 3.1 m/s)
Visibility: 6 or more miles (10+ km)
Ceiling: ceiling and visibility are OK
Clouds: unknown
Weather: no significant weather observed at this time

METAR text: EDDM 272150Z AUTO 25007KT 9999 FEW034 13/12 Q1020 NOSIG
Conditions at: EDDM (MUNICH-FLUGHAFEN, DE) observed 2150 UTC 27 May 2022
Temperature: 13.0°C (55°F)
Dewpoint: 12.0°C (54°F) [RH = 94%]
Pressure (altimeter): 30.12 inches Hg (1020.0 mb)
Winds: from the WSW (250 degrees) at 8 MPH (7 knots; 3.6 m/s)
Visibility: 6 or more miles (10+ km)
Ceiling: at least 12,000 feet AGL
Clouds: few clouds at 3400 feet AGL
Weather: no significant weather observed at this time

METAR text: EDDM 272120Z AUTO 26006KT 9999 FEW046 13/12 Q1020 NOSIG
Conditions at: EDDM (MUNICH-FLUGHAFEN, DE) observed 2120 UTC 27 May 2022
Temperature: 13.0°C (55°F)
Dewpoint: 12.0°C (54°F) [RH = 94%]
Pressure (altimeter): 30.12 inches Hg (1020.0 mb)
Winds: from the W (260 degrees) at 7 MPH (6 knots; 3.1 m/s)
Visibility: 6 or more miles (10+ km)
Ceiling: at least 12,000 feet AGL
Clouds: few clouds at 4600 feet AGL
Weather: no significant weather observed at this time

METAR text: EDDM 272050Z AUTO 26007KT 9999 -RA NSC 13/12 Q1020 NOSIG
Conditions at: EDDM (MUNICH-FLUGHAFEN, DE) observed 2050 UTC 27 May 2022
Temperature: 13.0°C (55°F)
Dewpoint: 12.0°C (54°F) [RH = 94%]
Pressure (altimeter): 30.12 inches Hg (1020.0 mb)
Winds: from the W (260 degrees) at 8 MPH (7 knots; 3.6 m/s)
Visibility: 6 or more miles (10+ km)
Ceiling: at least 12,000 feet AGL
Clouds: sky clear below 12,000 feet AGL
Weather: -RA  (light rain)

METAR text: EDDM 272020Z AUTO 25009KT 9999 -RA FEW031 13/12 Q1021 RESHRA NOSIG
Conditions at: EDDM (MUNICH-FLUGHAFEN, DE) observed 2020 UTC 27 May 2022
Temperature: 13.0°C (55°F)
Dewpoint: 12.0°C (54°F) [RH = 94%]
Pressure (altimeter): 30.15 inches Hg (1021.0 mb)
Winds: from the WSW (250 degrees) at 10 MPH (9 knots; 4.6 m/s)
Visibility: 6 or more miles (10+ km)
Ceiling: at least 12,000 feet AGL
Clouds: few clouds at 3100 feet AGL
Weather: -RA  (light rain)

METAR text: EDDM 271950Z AUTO 25007KT 9999 SHRA FEW034 FEW///CB 13/12 Q1020 NOSIG
Conditions at: EDDM (MUNICH-FLUGHAFEN, DE) observed 1950 UTC 27 May 2022
Temperature: 13.0°C (55°F)
Dewpoint: 12.0°C (54°F) [RH = 94%]
Pressure (altimeter): 30.12 inches Hg (1020.0 mb)
Winds: from the WSW (250 degrees) at 8 MPH (7 knots; 3.6 m/s)
Visibility: 6 or more miles (10+ km)
Ceiling: at least 12,000 feet AGL
Clouds: few clouds at 3400 feet AGL
Weather: SHRA  (rain showers)

METAR text: EDDM 271920Z AUTO 27006KT 230V290 9999 -RA SCT032 14/12 Q1020 NOSIG
Conditions at: EDDM (MUNICH-FLUGHAFEN, DE) observed 1920 UTC 27 May 2022
Temperature: 14.0°C (57°F)
Dewpoint: 12.0°C (54°F) [RH = 88%]
Pressure (altimeter): 30.12 inches Hg (1020.0 mb)
Winds: from the W (270 degrees) at 7 MPH (6 knots; 3.1 m/s)
Visibility: 6 or more miles (10+ km)
Ceiling: at least 12,000 feet AGL
Clouds: scattered clouds at 3200 feet AGL
Weather: -RA  (light rain)

METAR text: EDDM 271850Z AUTO 27007KT 9999 -RA FEW029 16/11 Q1020 NOSIG
Conditions at: EDDM (MUNICH-FLUGHAFEN, DE) observed 1850 UTC 27 May 2022
Temperature: 16.0°C (61°F)
Dewpoint: 11.0°C (52°F) [RH = 72%]
Pressure (altimeter): 30.12 inches Hg (1020.0 mb)
Winds: from the W (270 degrees) at 8 MPH (7 knots; 3.6 m/s)
Visibility: 6 or more miles (10+ km)
Ceiling: at least 12,000 feet AGL
Clouds: few clouds at 2900 feet AGL
Weather: -RA  (light rain)

METAR text: EDDM 271820Z AUTO 27010KT 9999 -RA SCT045 17/10 Q1020 NOSIG
Conditions at: EDDM (MUNICH-FLUGHAFEN, DE) observed 1820 UTC 27 May 2022
Temperature: 17.0°C (63°F)
Dewpoint: 10.0°C (50°F) [RH = 63%]
Pressure (altimeter): 30.12 inches Hg (1020.0 mb)
Winds: from the W (270 degrees) at 12 MPH (10 knots; 5.1 m/s)
Visibility: 6 or more miles (10+ km)
Ceiling: at least 12,000 feet AGL
Clouds: scattered clouds at 4500 feet AGL
Weather: -RA  (light rain)

METAR text: EDDM 271750Z AUTO 27010KT 9999 FEW035 SCT043 17/10 Q1019 NOSIG
Conditions at: EDDM (MUNICH-FLUGHAFEN, DE) observed 1750 UTC 27 May 2022
Temperature: 17.0°C (63°F)
Dewpoint: 10.0°C (50°F) [RH = 63%]
Pressure (altimeter): 30.09 inches Hg (1019.0 mb)
Winds: from the W (270 degrees) at 12 MPH (10 knots; 5.1 m/s)
Visibility: 6 or more miles (10+ km)
Ceiling: at least 12,000 feet AGL
Clouds: few clouds at 3500 feet AGL
scattered clouds at 4300 feet AGL
Weather: no significant weather observed at this time

METAR text: EDDM 271720Z AUTO 30010KT 250V330 9999 FEW034 17/10 Q1019 NOSIG
Conditions at: EDDM (MUNICH-FLUGHAFEN, DE) observed 1720 UTC 27 May 2022
Temperature: 17.0°C (63°F)
Dewpoint: 10.0°C (50°F) [RH = 63%]
Pressure (altimeter): 30.09 inches Hg (1019.0 mb)
Winds: from the WNW (300 degrees) at 12 MPH (10 knots; 5.1 m/s)
Visibility: 6 or more miles (10+ km)
Ceiling: at least 12,000 feet AGL
Clouds: few clouds at 3400 feet AGL
Weather: no significant weather observed at this time

METAR text: EDDM 271650Z AUTO 31010KT CAVOK 18/10 Q1019 NOSIG
Conditions at: EDDM (MUNICH-FLUGHAFEN, DE) observed 1650 UTC 27 May 2022
Temperature: 18.0°C (64°F)
Dewpoint: 10.0°C (50°F) [RH = 59%]
Pressure (altimeter): 30.09 inches Hg (1019.0 mb)
Winds: from the NW (310 degrees) at 12 MPH (10 knots; 5.1 m/s)
Visibility: 6 or more miles (10+ km)
Ceiling: ceiling and visibility are OK
Clouds: unknown
Weather: no significant weather observed at this time

METAR text: EDDM 271620Z AUTO 32013KT 290V350 CAVOK 18/10 Q1019 NOSIG
Conditions at: EDDM (MUNICH-FLUGHAFEN, DE) observed 1620 UTC 27 May 2022
Temperature: 18.0°C (64°F)
Dewpoint: 10.0°C (50°F) [RH = 59%]
Pressure (altimeter): 30.09 inches Hg (1019.0 mb)
Winds: from the NW (320 degrees) at 15 MPH (13 knots; 6.7 m/s)
Visibility: 6 or more miles (10+ km)
Ceiling: ceiling and visibility are OK
Clouds: unknown
Weather: no significant weather observed at this time

METAR text: EDDM 271550Z AUTO 31015KT 9999 FEW049 19/10 Q1019 BECMG 30010KT
Conditions at: EDDM (MUNICH-FLUGHAFEN, DE) observed 1550 UTC 27 May 2022
Temperature: 19.0°C (66°F)
Dewpoint: 10.0°C (50°F) [RH = 56%]
Pressure (altimeter): 30.09 inches Hg (1019.0 mb)
Winds: from the NW (310 degrees) at 17 MPH (15 knots; 7.7 m/s)
Visibility: 6 or more miles (10+ km)
Ceiling: at least 12,000 feet AGL
Clouds: few clouds at 4900 feet AGL
Weather: no significant weather observed at this time

METAR text: EDDM 271520Z AUTO 30015KT 260V330 9999 FEW048 20/10 Q1019 BECMG 30010KT
Conditions at: EDDM (MUNICH-FLUGHAFEN, DE) observed 1520 UTC 27 May 2022
Temperature: 20.0°C (68°F)
Dewpoint: 10.0°C (50°F) [RH = 53%]
Pressure (altimeter): 30.09 inches Hg (1019.0 mb)
Winds: from the WNW (300 degrees) at 17 MPH (15 knots; 7.7 m/s)
Visibility: 6 or more miles (10+ km)
Ceiling: at least 12,000 feet AGL
Clouds: few clouds at 4800 feet AGL
Weather: no significant weather observed at this time

METAR text: EDDM 271450Z AUTO 30011KT 260V340 9999 SCT048 21/11 Q1019 NOSIG
Conditions at: EDDM (MUNICH-FLUGHAFEN, DE) observed 1450 UTC 27 May 2022
Temperature: 21.0°C (70°F)
Dewpoint: 11.0°C (52°F) [RH = 53%]
Pressure (altimeter): 30.09 inches Hg (1019.0 mb)
Winds: from the WNW (300 degrees) at 13 MPH (11 knots; 5.7 m/s)
Visibility: 6 or more miles (10+ km)
Ceiling: at least 12,000 feet AGL
Clouds: scattered clouds at 4800 feet AGL
Weather: no significant weather observed at this time

METAR text: EDDM 271420Z AUTO 29012KT 9999 SCT047 21/11 Q1019 TEMPO 30015G25KT
Conditions at: EDDM (MUNICH-FLUGHAFEN, DE) observed 1420 UTC 27 May 2022
Temperature: 21.0°C (70°F)
Dewpoint: 11.0°C (52°F) [RH = 53%]
Pressure (altimeter): 30.09 inches Hg (1019.0 mb)
Winds: from the WNW (290 degrees) at 14 MPH (12 knots; 6.2 m/s)
Visibility: 6 or more miles (10+ km)
Ceiling: at least 12,000 feet AGL
Clouds: scattered clouds at 4700 feet AGL
Weather: no significant weather observed at this time

Forecast for: EDDM (MUNICH-FLUGHAFEN, DE)
Text: TAF EDDM 282300Z 2900/3006 01002KT 9999 FEW040
Forecast period: 0000 to 0700 UTC 29 May 2022
Forecast type: FROM: standard forecast or significant change
Winds: from the N (10 degrees) at 2 MPH (2 knots; 1.0 m/s)
Visibility: 6 or more miles (10+ km)
Ceiling: at least 12,000 feet AGL
Clouds: few clouds at 4000 feet AGL
Weather: no significant weather forecast for this period
Text: BECMG 2907/2909 35007KT
Forecast period: 0700 to 1800 UTC 29 May 2022
Forecast type: BECOMING: Conditions expected to become as follows by 0900 UTC 29 May 2022
Winds: from the N (350 degrees) at 8 MPH (7 knots; 3.6 m/s)
Visibility: 6 or more miles (10+ km)
Ceiling: at least 12,000 feet AGL
Clouds: few clouds at 4000 feet AGL
Weather: no significant weather forecast for this period
Text: PROB30
Forecast period: 1100 to 1800 UTC 29 May 2022
Forecast type: TEMPORARY: The following changes expected for less than half the time period
Visibility: 2.49 miles (4.01 km)
Ceiling: 2000 feet AGL
Clouds: broken clouds at 2000 feet AGL
Weather: TSRA  (rain associated with thunderstorm(s))
Text: TEMPO 2911/2918 4000 TSRA BKN020CB
Forecast period: 1800 UTC 29 May 2022 to 0600 UTC 30 May 2022
Forecast type: BECOMING: Conditions expected to become as follows by 2000 UTC 29 May 2022
Winds: from the SSW (200 degrees) at 3 MPH (3 knots; 1.5 m/s)
Visibility: 6 or more miles (10+ km)
Ceiling: at least 12,000 feet AGL
Clouds: few clouds at 4000 feet AGL
Weather: no significant weather forecast for this period
Text: BECMG 2918/2920 20003KT
Forecast period: 0300 to 0600 UTC 30 May 2022
Forecast type: TEMPORARY: The following changes expected for less than half the time period
Visibility: 1.24 miles (2.00 km)
Ceiling: unknown
Clouds: missing
Weather: BCFG  (patches of fog)